Historyczne dane pomiarowe

Dodano dane terminowe – wersja testowa.

Dane z okresu 1951-2019

Wersja bazy: 1.34 [2019-03-16, lista zmian], aktualizacja planowana na 2019-04-15

Dane meteo z obszaru Polski uzyskane na podstawie danych udostępnionych przez Instytut Meteorologii i Gospodarki Wodnej – Państwowy Instytut Badawczy.

 

Wybierz Datę:    

       

TemperaturaWilgotnośćWiatrCiśnienieOpadyŚniegCzas trwania zjawisk
 Stacja t tx tn tng RH VA  wxwx mslp ppp RRR   cm mm wxwxwxwxwxwxwx
1987-08-14 15.6 22.0 10.0 4.4 65.0- 5.7 2.7---- 0.1------------
1987-08-13 11.2 17.8 6.2 4.6 71.0- 5.7 2.7---- 0.0------------
1987-08-12 14.1 21.4 10.2 11.8 65.0- 7.3 3.0---- 0.0------------
1987-08-11 14.9 20.8 8.4 6.6 73.5- 6.7 2.3---- 4.7------------
1987-08-10 15.7 19.8 11.2 9.6 81.5- 7.3 3.3---- 3.6------------
1987-08-09 16.3 26.5 9.2 8.8 64.5- 6.3 2.0---- 1.4------------
1987-08-08 15.9 20.2 13.0 11.0 68.8- 5.7 2.0---- 1.2------------
1987-08-07 14.5 22.4 9.2 9.8 71.3- 5.7 2.0---- 0.0------------
1987-08-06 13.6 18.6 10.8 8.2 79.3- 6.7 2.0---- 0.2------------
1987-08-05 15.2 19.8 12.8 9.0 74.8- 5.7 2.0---- 0.0------------
1987-08-04 16.7 23.8 10.7 10.0 76.8- 5.3 2.0---- 0.0------------
1987-08-03 15.1 21.6 12.0 9.6 82.0- 5.7 2.3---- 0.0------------
1987-08-02 16.2 20.4 11.4 9.4 79.8- 5.7 2.0---- 1.4------------
1987-08-01 16.7 22.8 10.8 7.8 75.3- 5.7 2.0---- 0.0------------
1987-07-31 19.3 25.0 11.6 8.8 66.5- 5.7 2.3---- 0.0------------
1987-07-30 16.3 23.2 8.7 6.2 71.8- 7.3 2.7---- 0.0------------
1987-07-29 15.0 19.0 8.6 4.6 75.0- 5.3 2.7---- 0.0------------
1987-07-28 14.5 19.2 10.8 8.6 94.5- 6.7 2.0---- 2.8------------
1987-07-27 13.5 17.8 8.4 7.8 90.5- 6.0 2.3---- 1.6------------
1987-07-26 16.7 23.4 10.8 9.0 92.3- 6.7 2.0---- 9.4------------
1987-07-25 21.5 26.5 15.0 11.8 79.3- 5.0 2.3---- 3.7------------
1987-07-24 22.8 27.1 18.2 16.7 78.8- 6.3 2.0---- 0.0------------
1987-07-23 23.2 29.7 16.4 12.7 74.0- 4.7 2.0---- 0.3------------
1987-07-22 22.8 28.5 17.9 16.1 76.5- 3.3 2.7---- 0.0------------
1987-07-21 22.0 29.1 15.0 12.9 71.3- 5.3 2.0---- 0.0------------
1987-07-20 25.4 32.1 19.6 17.3 74.8- 4.0 2.0---- 0.6------------
1987-07-19 23.9 31.7 19.0 15.9 81.0- 3.3 2.3---- 0.0------------
1987-07-18 23.8 31.4 18.9 17.3 77.3- 5.0 2.3---- 0.0------------
1987-07-17 22.6 31.1 15.0 14.7 67.3- 4.3 2.3---- 4.1------------
1987-07-16 19.1 28.1 8.4 12.9 68.5- 5.0 2.3---- 0.0------------
1987-07-15 16.3 24.0 8.5 9.2 65.3- 6.7 2.3---- 0.0------------
1987-07-14 16.7 23.0 14.0 13.1 60.5- 5.7 2.0---- 0.0------------
1987-07-13 19.9 26.1 12.8 10.2 75.3- 5.7 2.3---- 0.0------------
1987-07-12 23.2 28.1 16.6 13.3 63.0- 6.0 2.0---- 5.3------------
1987-07-11 15.8 22.2 8.0 8.2 65.0- 5.3 3.0---- 0.0------------
1987-07-10 16.7 22.0 12.4 10.4 67.3- 6.0 2.7---- 11.8------------
1987-07-09 21.5 28.7 14.0 14.1 73.3- 4.7 2.3---- 0.0------------
1987-07-08 21.3 28.2 11.5 11.5 60.5- 4.3 3.3---- 0.0------------
1987-07-07 17.9 26.1 7.7 12.4 66.5- 4.3 2.3---- 0.0------------
1987-07-06 17.1 24.0 8.0 10.6 73.8- 5.0 2.7---- 0.0------------
1987-07-05 17.4 23.2 13.1 10.0 70.3- 5.3 2.0---- 0.0------------
1987-07-04 19.4 24.0 15.4 11.6 65.5- 6.0 2.0---- 0.0------------
1987-07-03 19.8 24.2 18.0 11.2 68.8- 5.7 2.0---- 0.0------------
1987-07-02 22.0 27.1 19.6 14.3 83.3- 5.7 2.0---- 0.0------------
1987-07-01 25.9 32.8 18.9 19.4 52.5- 4.0 2.3---- 0.0------------
1987-06-30 22.9 32.4 16.3 14.1 74.5- 5.0 2.3---- 0.0------------
1987-06-29 19.8 25.2 13.6 13.3 68.5- 5.3 2.7---- 0.0------------
1987-06-28 20.3 26.4 15.0 12.0 75.0- 5.3 2.3---- 0.0------------
1987-06-27 20.4 25.4 14.4 10.6 69.0- 5.0 2.3---- 0.0------------
1987-06-26 15.5 24.0 7.2 7.2 66.8- 5.7 3.0---- 0.0------------
1987-06-25 15.9 21.0 10.8 7.6 75.3- 6.3 2.7---- 0.0------------
1987-06-24 15.6 21.6 9.4 7.3 74.3- 6.0 2.7---- 0.0------------
1987-06-23 17.1 23.4 9.8 7.8 85.8- 6.7 2.0---- 0.6------------
1987-06-22 17.2 19.4 13.0 10.8 85.8- 7.3 2.7---- 16.5------------
1987-06-21 18.6 26.0 10.0 10.2 68.3- 5.3 2.7---- 0.0------------
1987-06-20 15.0 23.0 5.9 8.4 67.5- 5.7 2.7---- 0.0------------
1987-06-19 12.3 21.8 7.8 5.8 80.5- 7.3 2.3---- 1.6------------
1987-06-18 15.2 20.8 6.0 10.2 83.8- 6.7 2.0---- 3.4------------
1987-06-17 13.3 19.4 8.4 5.4 85.8- 8.0 2.3---- 0.0------------
1987-06-16 17.7 25.4 13.0 16.9 77.5- 5.7 3.0---- 1.7------------
450.0 ms

 

Źródłem pochodzenia danych jest Instytut Meteorologii i Gospodarki Wodnej – Państwowy Instytut Badawczy. Dane Instytutu Meteorologii i Gospodarki Wodnej – Państwowego Instytutu Badawczego zostały przetworzone.

Dane źródłowe można odnaleźć na stronie https://dane.imgw.pl